createdAt,value
2023-03-30T00:00:18.196Z,22.79
2023-03-30T00:02:49.518Z,22.76
2023-03-30T00:05:19.138Z,22.76
2023-03-30T00:07:48.043Z,22.77
2023-03-30T00:10:19.319Z,22.75
2023-03-30T00:12:48.387Z,22.76
2023-03-30T00:15:17.971Z,22.74
2023-03-30T00:17:46.562Z,22.74
2023-03-30T00:20:15.694Z,22.74
2023-03-30T00:22:45.055Z,22.74
2023-03-30T00:25:14.727Z,22.73
2023-03-30T00:27:44.664Z,22.74
2023-03-30T00:30:15.393Z,22.73
2023-03-30T00:32:44.020Z,22.73
2023-03-30T00:35:13.483Z,22.72
2023-03-30T00:37:45.846Z,22.72
2023-03-30T00:40:20.206Z,22.71
2023-03-30T00:42:50.447Z,22.72
2023-03-30T00:45:24.400Z,22.73
2023-03-30T00:48:03.155Z,22.73
2023-03-30T00:50:36.117Z,22.72
2023-03-30T00:53:10.042Z,22.72
2023-03-30T00:55:40.148Z,22.71
2023-03-30T00:58:10.964Z,22.71
2023-03-30T01:00:40.382Z,22.72
2023-03-30T01:03:14.269Z,22.70
2023-03-30T01:05:42.886Z,22.71
2023-03-30T01:08:14.094Z,22.71
2023-03-30T01:10:42.836Z,22.71
2023-03-30T01:13:12.973Z,22.71
2023-03-30T01:15:48.076Z,22.71
2023-03-30T01:18:33.322Z,22.71
2023-03-30T01:21:49.426Z,22.69
2023-03-30T01:24:49.494Z,22.70
2023-03-30T01:27:39.467Z,22.70
2023-03-30T01:30:33.908Z,22.70
2023-03-30T01:34:14.689Z,22.69
2023-03-30T01:37:21.697Z,22.69
2023-03-30T01:39:56.833Z,22.69
2023-03-30T01:42:30.117Z,22.69
2023-03-30T01:45:02.892Z,22.69
2023-03-30T01:47:35.853Z,22.69
2023-03-30T01:50:08.782Z,22.69
2023-03-30T01:52:41.324Z,22.69
2023-03-30T01:55:14.984Z,22.69
2023-03-30T01:57:46.923Z,22.68
2023-03-30T02:00:18.028Z,22.69
2023-03-30T02:02:49.565Z,22.69
2023-03-30T02:05:18.625Z,22.67
2023-03-30T02:07:48.020Z,22.69
2023-03-30T02:10:17.878Z,22.69
2023-03-30T02:12:46.759Z,22.69
2023-03-30T02:15:15.447Z,22.69
2023-03-30T02:17:46.057Z,22.68
2023-03-30T02:20:16.524Z,22.68
2023-03-30T02:22:45.157Z,22.68
2023-03-30T02:25:14.407Z,22.69
2023-03-30T02:27:44.311Z,22.68
2023-03-30T02:30:14.079Z,22.68
2023-03-30T02:32:44.344Z,22.68
2023-03-30T02:35:25.782Z,22.68
2023-03-30T02:40:48.025Z,22.68
2023-03-30T02:43:45.031Z,22.68
2023-03-30T02:48:58.027Z,22.66
2023-03-30T02:51:40.113Z,22.64
2023-03-30T02:54:16.432Z,22.66
2023-03-30T02:56:48.575Z,22.66
2023-03-30T03:01:51.103Z,22.65
2023-03-30T03:04:22.164Z,22.65
2023-03-30T03:06:53.056Z,22.65
2023-03-30T03:11:49.665Z,22.66
2023-03-30T03:14:19.476Z,22.65
2023-03-30T03:16:48.012Z,22.65
2023-03-30T03:19:17.093Z,22.66
2023-03-30T03:24:17.394Z,22.65
2023-03-30T03:26:46.123Z,22.65
2023-03-30T03:29:14.710Z,22.65
2023-03-30T03:31:44.599Z,22.65
2023-03-30T03:34:13.076Z,22.64
2023-03-30T03:36:43.809Z,22.64
2023-03-30T03:39:12.691Z,22.64
2023-03-30T03:41:41.198Z,22.64
2023-03-30T03:44:09.603Z,22.65
2023-03-30T03:46:38.095Z,22.63
2023-03-30T03:49:08.023Z,22.65
2023-03-30T03:51:37.062Z,22.63
2023-03-30T03:54:05.750Z,22.64
2023-03-30T03:56:34.432Z,22.62
2023-03-30T03:59:03.608Z,22.63
2023-03-30T04:01:32.162Z,22.63
2023-03-30T04:04:00.588Z,22.64
2023-03-30T04:06:30.488Z,22.64
2023-03-30T04:08:58.973Z,22.64
2023-03-30T04:11:27.731Z,22.63
2023-03-30T04:13:56.240Z,22.64
2023-03-30T04:16:24.718Z,22.62
2023-03-30T04:18:53.318Z,22.62
2023-03-30T04:21:23.017Z,22.62
2023-03-30T04:23:53.241Z,22.62
2023-03-30T04:26:21.929Z,22.62
2023-03-30T04:28:53.896Z,22.62
2023-03-30T04:31:22.917Z,22.62
2023-03-30T04:33:54.781Z,22.62
2023-03-30T04:36:23.380Z,22.62
2023-03-30T04:38:59.831Z,22.62
2023-03-30T04:41:33.603Z,22.61
2023-03-30T04:44:03.670Z,22.62
2023-03-30T04:46:32.268Z,22.62
2023-03-30T04:49:00.876Z,22.61
2023-03-30T04:51:29.566Z,22.61
2023-03-30T04:53:59.431Z,22.61
2023-03-30T04:56:27.954Z,22.63
2023-03-30T04:58:56.494Z,22.62
2023-03-30T05:01:25.422Z,22.60
2023-03-30T05:03:53.986Z,22.61
2023-03-30T05:06:23.246Z,22.60
2023-03-30T05:08:51.843Z,22.59
2023-03-30T05:11:21.776Z,22.60
2023-03-30T05:13:52.599Z,22.60
2023-03-30T05:16:22.060Z,22.60
2023-03-30T05:18:51.826Z,22.63
2023-03-30T05:21:20.694Z,22.63
2023-03-30T05:23:49.241Z,22.64
2023-03-30T05:26:17.732Z,22.63
2023-03-30T05:28:48.296Z,22.61
2023-03-30T05:31:17.385Z,22.63
2023-03-30T05:33:46.797Z,22.66
2023-03-30T05:38:45.396Z,22.71
2023-03-30T05:41:14.980Z,22.70
2023-03-30T05:43:43.863Z,22.74
2023-03-30T05:46:14.193Z,22.75
2023-03-30T05:48:43.346Z,22.73
2023-03-30T05:51:12.053Z,22.75
2023-03-30T05:53:40.981Z,22.79
2023-03-30T05:56:11.062Z,22.77
2023-03-30T05:58:39.803Z,22.74
2023-03-30T06:01:09.776Z,22.73
2023-03-30T06:03:40.520Z,22.71
2023-03-30T06:06:11.089Z,22.72
2023-03-30T06:08:40.384Z,22.74
2023-03-30T06:11:09.788Z,22.72
2023-03-30T06:13:38.490Z,22.72
2023-03-30T06:16:08.202Z,22.75
2023-03-30T06:18:37.124Z,22.76
2023-03-30T06:21:08.880Z,22.76
2023-03-30T06:23:38.286Z,22.76
2023-03-30T06:26:08.989Z,22.78
2023-03-30T06:28:38.374Z,22.78
2023-03-30T06:31:10.938Z,22.79
2023-03-30T06:33:41.783Z,22.79
2023-03-30T06:36:14.588Z,22.77
2023-03-30T06:38:43.877Z,22.75
2023-03-30T06:41:12.985Z,22.76
2023-03-30T06:43:41.878Z,22.75
2023-03-30T06:46:11.535Z,22.75
2023-03-30T06:48:40.272Z,22.75
2023-03-30T06:51:09.537Z,22.74
2023-03-30T06:53:39.791Z,22.75
2023-03-30T06:56:10.203Z,22.76
2023-03-30T06:58:39.234Z,22.76
2023-03-30T07:01:12.224Z,22.75
2023-03-30T07:03:41.405Z,22.77
2023-03-30T07:06:11.027Z,22.77
2023-03-30T07:08:41.694Z,22.79
2023-03-30T07:11:10.334Z,22.79
2023-03-30T07:13:39.389Z,22.78
2023-03-30T07:16:09.186Z,22.78
2023-03-30T07:18:37.929Z,22.77
2023-03-30T07:21:07.790Z,22.77
2023-03-30T07:23:36.376Z,22.76
2023-03-30T07:26:06.891Z,22.76
2023-03-30T07:28:38.520Z,22.77
2023-03-30T07:31:08.006Z,22.78
2023-03-30T07:33:37.896Z,22.76
2023-03-30T07:36:08.712Z,22.77
2023-03-30T07:38:37.520Z,22.77
2023-03-30T07:41:10.795Z,22.78
2023-03-30T07:43:40.610Z,22.78
2023-03-30T07:46:09.742Z,22.79
2023-03-30T07:48:38.561Z,22.79
2023-03-30T07:51:08.499Z,22.80
2023-03-30T07:53:37.492Z,22.84
2023-03-30T07:56:06.912Z,22.82
2023-03-30T07:58:37.284Z,22.82
2023-03-30T08:01:06.583Z,22.83
2023-03-30T08:03:37.116Z,22.83
2023-03-30T08:06:06.699Z,22.83
2023-03-30T08:08:35.470Z,22.83
2023-03-30T08:11:04.551Z,22.84
2023-03-30T08:13:33.925Z,22.84
2023-03-30T08:16:03.919Z,22.84
2023-03-30T08:18:33.088Z,22.84
2023-03-30T08:21:01.971Z,22.84
2023-03-30T08:23:31.080Z,22.84
2023-03-30T08:26:00.088Z,22.85
2023-03-30T08:28:29.109Z,22.84
2023-03-30T08:30:58.199Z,22.84
2023-03-30T08:33:28.254Z,22.84
2023-03-30T08:35:57.278Z,22.83
2023-03-30T08:38:26.046Z,22.83
2023-03-30T08:40:55.121Z,22.84
2023-03-30T08:43:40.753Z,22.83
2023-03-30T08:46:10.742Z,22.86
2023-03-30T08:48:42.709Z,22.83
2023-03-30T08:51:20.246Z,22.82
2023-03-30T08:53:49.112Z,22.89
2023-03-30T08:56:19.790Z,22.86
2023-03-30T08:58:54.474Z,22.84
2023-03-30T09:01:25.277Z,22.83
2023-03-30T09:04:05.647Z,22.83
2023-03-30T09:06:46.271Z,22.83
2023-03-30T09:09:17.220Z,22.83
2023-03-30T09:11:46.421Z,22.84
2023-03-30T09:14:20.322Z,22.85
2023-03-30T09:16:53.910Z,22.82
2023-03-30T09:19:26.795Z,22.83
2023-03-30T09:21:56.036Z,22.84
2023-03-30T09:24:27.477Z,22.86
2023-03-30T09:27:00.104Z,22.86
2023-03-30T09:29:30.050Z,22.87
2023-03-30T09:32:06.173Z,22.86
2023-03-30T09:34:41.173Z,22.87
2023-03-30T09:37:13.128Z,22.91
2023-03-30T09:39:42.582Z,22.89
2023-03-30T09:42:21.456Z,22.88
2023-03-30T09:44:52.866Z,22.89
2023-03-30T09:47:26.561Z,22.89
2023-03-30T09:50:01.444Z,22.89
2023-03-30T09:52:32.270Z,22.91
2023-03-30T09:55:26.108Z,22.91
2023-03-30T09:57:57.009Z,22.91
2023-03-30T10:00:28.286Z,22.92
2023-03-30T10:02:58.648Z,22.92
2023-03-30T10:05:28.885Z,22.93
2023-03-30T10:07:58.963Z,22.92
2023-03-30T10:10:34.783Z,22.92
2023-03-30T10:13:09.824Z,22.92
2023-03-30T10:15:40.384Z,22.91
2023-03-30T10:18:25.875Z,22.90
2023-03-30T10:21:01.779Z,22.92
2023-03-30T10:23:33.449Z,22.91
2023-03-30T10:26:04.124Z,22.91
2023-03-30T10:28:36.123Z,22.92
2023-03-30T10:31:06.709Z,22.92
2023-03-30T10:33:41.717Z,22.92
2023-03-30T10:36:12.681Z,22.93
2023-03-30T10:38:41.985Z,22.92
2023-03-30T10:41:12.037Z,22.93
2023-03-30T10:43:41.245Z,22.92
2023-03-30T10:46:19.969Z,22.93
2023-03-30T10:49:11.883Z,22.92
2023-03-30T10:51:51.138Z,22.92
2023-03-30T10:54:23.107Z,22.93
2023-03-30T10:56:54.363Z,22.93
2023-03-30T10:59:52.749Z,22.92
2023-03-30T11:02:32.137Z,22.94
2023-03-30T11:05:03.420Z,22.92
2023-03-30T11:07:36.464Z,22.93
2023-03-30T11:10:08.147Z,22.93
2023-03-30T11:12:40.506Z,22.93
2023-03-30T11:15:12.406Z,22.94
2023-03-30T11:17:45.861Z,22.93
2023-03-30T11:20:23.725Z,22.93
2023-03-30T11:22:58.621Z,22.94
2023-03-30T11:25:29.577Z,22.94
2023-03-30T11:28:01.209Z,22.94
2023-03-30T11:30:31.212Z,22.94
2023-03-30T11:33:03.435Z,22.94
2023-03-30T11:35:36.329Z,22.93
2023-03-30T11:38:10.613Z,22.94
2023-03-30T11:40:43.655Z,22.94
2023-03-30T11:43:13.443Z,22.94
2023-03-30T11:45:53.399Z,22.93
2023-03-30T11:48:59.917Z,22.94
2023-03-30T11:51:44.827Z,22.93
2023-03-30T11:55:03.143Z,22.94
2023-03-30T11:57:38.194Z,22.94
2023-03-30T12:00:27.687Z,22.92
2023-03-30T12:03:03.112Z,22.94
2023-03-30T12:05:34.408Z,22.94
2023-03-30T12:08:12.374Z,22.94
2023-03-30T12:10:43.181Z,22.95
2023-03-30T12:13:13.755Z,22.94
2023-03-30T12:15:46.815Z,22.94
2023-03-30T12:18:26.038Z,22.95
2023-03-30T12:20:56.937Z,22.94
2023-03-30T12:23:35.675Z,22.95
2023-03-30T12:26:12.610Z,22.93
2023-03-30T12:29:15.291Z,22.94
2023-03-30T12:32:04.852Z,22.96
2023-03-30T12:34:34.585Z,22.96
2023-03-30T12:37:10.276Z,22.97
2023-03-30T12:39:45.073Z,22.96
2023-03-30T12:42:27.444Z,22.98
2023-03-30T12:45:12.639Z,22.97
2023-03-30T12:47:51.018Z,22.94
2023-03-30T12:50:34.747Z,22.97
2023-03-30T12:53:30.624Z,22.96
2023-03-30T12:56:05.032Z,22.96
2023-03-30T12:59:05.959Z,22.94
2023-03-30T13:01:55.629Z,22.94
2023-03-30T13:04:25.271Z,22.93
2023-03-30T13:06:54.672Z,22.94
2023-03-30T13:09:55.056Z,22.93
2023-03-30T13:12:49.477Z,22.94
2023-03-30T13:15:43.496Z,22.91
2023-03-30T13:18:36.086Z,22.92
2023-03-30T13:21:20.046Z,22.94
2023-03-30T13:24:05.914Z,22.94
2023-03-30T13:26:45.268Z,22.93
2023-03-30T13:29:15.417Z,22.93
2023-03-30T13:32:00.645Z,22.91
2023-03-30T13:35:03.168Z,22.92
2023-03-30T13:38:03.984Z,22.93
2023-03-30T13:40:40.229Z,22.92
2023-03-30T13:43:18.630Z,22.93
2023-03-30T13:45:51.239Z,22.93
2023-03-30T13:48:36.429Z,22.93
2023-03-30T13:51:05.093Z,22.93
2023-03-30T13:53:42.783Z,22.93
2023-03-30T13:56:11.363Z,22.92
2023-03-30T13:58:39.791Z,22.93
2023-03-30T14:01:10.709Z,22.92
2023-03-30T14:03:42.310Z,22.93
2023-03-30T14:06:17.693Z,22.92
2023-03-30T14:08:48.030Z,22.92
2023-03-30T14:11:18.854Z,22.92
2023-03-30T14:13:49.156Z,22.92
2023-03-30T14:16:21.422Z,22.91
2023-03-30T14:18:51.556Z,22.92
2023-03-30T14:21:22.052Z,22.93
2023-03-30T14:23:52.105Z,22.93
2023-03-30T14:26:24.187Z,22.93
2023-03-30T14:28:55.781Z,22.92
2023-03-30T14:31:27.277Z,22.92
2023-03-30T14:33:57.298Z,22.92
2023-03-30T14:36:25.889Z,22.94
2023-03-30T14:38:55.294Z,22.94
2023-03-30T14:41:24.724Z,22.93
2023-03-30T14:43:55.993Z,22.91
2023-03-30T14:46:25.394Z,22.91
2023-03-30T14:48:53.974Z,22.91
2023-03-30T14:51:28.188Z,22.92
2023-03-30T14:53:57.781Z,22.92
2023-03-30T14:56:26.731Z,22.99
2023-03-30T14:58:55.188Z,22.96
2023-03-30T15:01:31.422Z,22.95
2023-03-30T15:04:00.880Z,22.98
2023-03-30T15:06:30.976Z,22.98
2023-03-30T15:09:02.675Z,22.99
2023-03-30T15:11:31.529Z,23.00
2023-03-30T15:14:03.942Z,22.99
2023-03-30T15:16:34.310Z,23.03
2023-03-30T15:19:04.732Z,23.03
2023-03-30T15:21:36.888Z,23.03
2023-03-30T15:24:07.715Z,23.00
2023-03-30T15:26:46.350Z,22.98
2023-03-30T15:29:15.456Z,22.99
2023-03-30T15:31:44.972Z,22.99
2023-03-30T15:34:16.398Z,22.98
2023-03-30T15:36:48.970Z,22.99
2023-03-30T15:39:21.836Z,23.00
2023-03-30T15:41:51.343Z,22.98
2023-03-30T15:44:20.282Z,22.97
2023-03-30T15:46:49.759Z,22.92
2023-03-30T15:49:20.117Z,22.97
2023-03-30T15:51:51.923Z,23.01
2023-03-30T15:54:23.394Z,23.00
2023-03-30T15:56:56.555Z,23.03
2023-03-30T15:59:27.525Z,23.03
2023-03-30T16:01:56.932Z,23.04
2023-03-30T16:04:26.115Z,23.04
2023-03-30T16:06:56.167Z,23.06
2023-03-30T16:09:24.843Z,23.05
2023-03-30T16:11:53.345Z,23.02
2023-03-30T16:14:21.969Z,23.08
2023-03-30T16:16:50.528Z,23.05
2023-03-30T16:19:20.911Z,23.08
2023-03-30T16:21:49.784Z,23.08
2023-03-30T16:24:19.698Z,23.09
2023-03-30T16:26:48.269Z,23.05
2023-03-30T16:29:21.693Z,23.09
2023-03-30T16:31:50.375Z,23.07
2023-03-30T16:34:18.971Z,23.08
2023-03-30T16:36:48.206Z,23.07
2023-03-30T16:39:20.743Z,23.10
2023-03-30T16:41:49.659Z,23.08
2023-03-30T16:44:18.400Z,23.10
2023-03-30T16:46:47.241Z,23.10
2023-03-30T16:49:16.920Z,23.10
2023-03-30T16:51:45.821Z,23.08
2023-03-30T16:54:29.524Z,23.09
2023-03-30T16:57:00.920Z,23.08
2023-03-30T16:59:31.778Z,23.10
2023-03-30T17:02:00.488Z,23.15
2023-03-30T17:04:29.062Z,23.17
2023-03-30T17:06:58.110Z,23.14
2023-03-30T17:09:27.312Z,23.11
2023-03-30T17:11:55.794Z,23.12
2023-03-30T17:14:25.816Z,23.12
2023-03-30T17:16:54.313Z,23.13
2023-03-30T17:19:22.862Z,23.11
2023-03-30T17:21:51.881Z,23.10
2023-03-30T17:24:20.620Z,23.11
2023-03-30T17:26:49.227Z,23.03
2023-03-30T17:29:17.839Z,23.06
2023-03-30T17:31:47.702Z,23.06
2023-03-30T17:34:16.462Z,23.10
2023-03-30T17:36:44.976Z,23.10
2023-03-30T17:39:14.448Z,23.10
2023-03-30T17:41:43.087Z,23.11
2023-03-30T17:44:11.554Z,23.13
2023-03-30T17:46:42.996Z,23.12
2023-03-30T17:49:17.348Z,23.11
2023-03-30T17:51:46.115Z,23.09
2023-03-30T17:54:14.985Z,23.11
2023-03-30T17:56:43.594Z,23.11
2023-03-30T17:59:12.356Z,23.13
2023-03-30T18:01:41.199Z,23.12
2023-03-30T18:04:10.049Z,23.12
2023-03-30T18:06:40.807Z,23.12
2023-03-30T18:09:15.167Z,23.12
2023-03-30T18:11:44.111Z,23.09
2023-03-30T18:14:12.658Z,23.07
2023-03-30T18:16:43.660Z,23.09
2023-03-30T18:19:13.317Z,23.10
2023-03-30T18:21:43.326Z,23.08
2023-03-30T18:24:11.946Z,23.07
2023-03-30T18:26:43.002Z,23.05
2023-03-30T18:29:20.449Z,23.05
2023-03-30T18:31:49.324Z,23.04
2023-03-30T18:34:19.725Z,23.04
2023-03-30T18:36:49.566Z,23.05
2023-03-30T18:39:19.836Z,23.06
2023-03-30T18:41:48.593Z,23.05
2023-03-30T18:44:17.314Z,23.05
2023-03-30T18:46:46.483Z,23.06
2023-03-30T18:49:15.682Z,23.05
2023-03-30T18:51:44.318Z,23.05
2023-03-30T18:54:14.093Z,23.05
2023-03-30T18:56:43.424Z,23.04
2023-03-30T18:59:11.980Z,23.04
2023-03-30T19:01:40.585Z,23.06
2023-03-30T19:04:09.145Z,23.05
2023-03-30T19:06:38.325Z,23.05
2023-03-30T19:09:06.750Z,23.05
2023-03-30T19:11:36.598Z,23.04
2023-03-30T19:14:05.065Z,23.05
2023-03-30T19:16:33.626Z,23.05
2023-03-30T19:19:02.152Z,23.04
2023-03-30T19:21:30.946Z,23.04
2023-03-30T19:23:59.363Z,23.05
2023-03-30T19:26:28.140Z,23.05
2023-03-30T19:28:57.981Z,23.04
2023-03-30T19:31:26.541Z,23.05
2023-03-30T19:33:55.119Z,23.05
2023-03-30T19:36:25.316Z,23.04
2023-03-30T19:38:54.673Z,23.04
2023-03-30T19:41:23.086Z,23.05
2023-03-30T19:43:51.599Z,23.03
2023-03-30T19:46:22.150Z,23.04
2023-03-30T19:48:50.760Z,23.04
2023-03-30T19:51:19.732Z,23.03
2023-03-30T19:53:48.280Z,23.04
2023-03-30T19:56:16.763Z,23.03
2023-03-30T19:58:45.269Z,23.04
2023-03-30T20:01:13.678Z,23.04
2023-03-30T20:03:43.603Z,23.04
2023-03-30T20:06:12.597Z,23.03
2023-03-30T20:08:41.324Z,23.04
2023-03-30T20:11:10.040Z,23.04
2023-03-30T20:13:38.674Z,23.04
2023-03-30T20:16:07.354Z,23.04
2023-03-30T20:18:35.964Z,23.04
2023-03-30T20:21:06.937Z,23.04
2023-03-30T20:23:35.646Z,23.04
2023-03-30T20:26:04.863Z,23.04
2023-03-30T20:28:33.486Z,23.04
2023-03-30T20:31:02.049Z,23.04
2023-03-30T20:33:30.876Z,23.03
2023-03-30T20:35:59.786Z,23.04
2023-03-30T20:38:29.647Z,23.03
2023-03-30T20:40:58.657Z,23.03
2023-03-30T20:43:27.359Z,23.04
2023-03-30T20:46:02.411Z,23.03
2023-03-30T20:48:33.721Z,23.02
2023-03-30T20:51:03.808Z,23.03
2023-03-30T20:53:34.255Z,23.02
2023-03-30T20:56:03.064Z,23.03
2023-03-30T20:58:31.741Z,23.02
2023-03-30T21:01:01.705Z,23.02
2023-03-30T21:03:30.328Z,23.02
2023-03-30T21:06:03.180Z,23.01
2023-03-30T21:08:33.245Z,23.03
2023-03-30T21:11:01.940Z,23.02
2023-03-30T21:13:30.539Z,23.02
2023-03-30T21:15:59.498Z,23.02
2023-03-30T21:18:27.936Z,23.02
2023-03-30T21:20:56.967Z,23.02
2023-03-30T21:23:26.826Z,23.03
2023-03-30T21:25:58.228Z,23.02
2023-03-30T21:28:28.628Z,23.02
2023-03-30T21:30:57.854Z,23.02
2023-03-30T21:33:28.822Z,23.02
2023-03-30T21:35:58.657Z,23.02
2023-03-30T21:38:28.081Z,23.02
2023-03-30T21:41:02.141Z,23.02
2023-03-30T21:43:31.409Z,23.04
2023-03-30T21:46:01.026Z,23.02
2023-03-30T21:48:30.948Z,23.01
2023-03-30T21:51:00.152Z,23.03
2023-03-30T21:53:28.752Z,23.03
2023-03-30T21:55:57.694Z,23.04
2023-03-30T21:58:28.448Z,23.02
2023-03-30T22:01:08.975Z,23.02
2023-03-30T22:03:40.194Z,23.02
2023-03-30T22:06:10.897Z,23.03
2023-03-30T22:08:40.120Z,23.02
2023-03-30T22:11:09.943Z,23.01
2023-03-30T22:13:39.978Z,23.01
2023-03-30T22:16:12.718Z,23.01
2023-03-30T22:18:41.371Z,23.01
2023-03-30T22:21:12.411Z,23.01
2023-03-30T22:23:40.933Z,23.02
2023-03-30T22:26:09.359Z,23.01
2023-03-30T22:28:39.221Z,23.02
2023-03-30T22:31:08.435Z,23.01
2023-03-30T22:33:36.937Z,23.01
2023-03-30T22:36:07.717Z,23.01
2023-03-30T22:38:36.413Z,23.02
2023-03-30T22:41:07.593Z,23.02
2023-03-30T22:43:36.554Z,22.99
2023-03-30T22:46:06.930Z,23.00
2023-03-30T22:48:35.812Z,23.01
2023-03-30T22:51:04.530Z,23.01
2023-03-30T22:53:33.287Z,23.02
2023-03-30T22:56:01.858Z,23.02
2023-03-30T22:58:30.352Z,23.02
2023-03-30T23:01:03.641Z,23.01
2023-03-30T23:03:33.624Z,23.01
2023-03-30T23:06:02.128Z,23.02
2023-03-30T23:08:30.905Z,23.02
2023-03-30T23:11:04.964Z,23.01
2023-03-30T23:13:37.837Z,23.01
2023-03-30T23:16:08.380Z,23.02
2023-03-30T23:18:38.320Z,23.02
2023-03-30T23:21:07.570Z,23.01
2023-03-30T23:23:36.911Z,23.01
2023-03-30T23:26:09.029Z,23.01
2023-03-30T23:28:38.696Z,23.01
2023-03-30T23:31:10.819Z,23.01
2023-03-30T23:33:41.128Z,23.01
2023-03-30T23:36:10.448Z,23.01
2023-03-30T23:38:39.280Z,23.01
2023-03-30T23:41:07.902Z,22.99
2023-03-30T23:43:36.532Z,22.99
2023-03-30T23:46:05.593Z,22.99
2023-03-30T23:48:34.507Z,22.99
2023-03-30T23:51:04.905Z,22.99
2023-03-30T23:53:33.388Z,22.98
2023-03-30T23:56:06.117Z,22.99
2023-03-30T23:58:34.877Z,22.98
